sensor_id;sensor_type;location;lat;lon;timestamp;P1;durP1;ratioP1;P2;durP2;ratioP2
55641;SDS011;41509;53.108;6.100;2024-02-23T00:01:04;5.30;;;0.65;;
55641;SDS011;41509;53.108;6.100;2024-02-23T00:03:30;3.60;;;0.57;;
55641;SDS011;41509;53.108;6.100;2024-02-23T00:05:59;2.45;;;0.40;;
55641;SDS011;41509;53.108;6.100;2024-02-23T00:08:28;3.58;;;0.68;;
55641;SDS011;41509;53.108;6.100;2024-02-23T00:10:54;2.60;;;0.40;;
55641;SDS011;41509;53.108;6.100;2024-02-23T00:13:20;0.95;;;0.25;;
55641;SDS011;41509;53.108;6.100;2024-02-23T00:15:46;4.03;;;0.38;;
55641;SDS011;41509;53.108;6.100;2024-02-23T00:18:12;3.55;;;0.65;;
55641;SDS011;41509;53.108;6.100;2024-02-23T00:20:41;3.72;;;0.30;;
55641;SDS011;41509;53.108;6.100;2024-02-23T00:23:07;0.80;;;0.40;;
55641;SDS011;41509;53.108;6.100;2024-02-23T00:25:33;1.02;;;0.30;;
55641;SDS011;41509;53.108;6.100;2024-02-23T00:27:59;1.70;;;0.35;;
55641;SDS011;41509;53.108;6.100;2024-02-23T00:30:25;2.17;;;0.38;;
55641;SDS011;41509;53.108;6.100;2024-02-23T00:32:52;5.32;;;0.60;;
55641;SDS011;41509;53.108;6.100;2024-02-23T00:35:18;2.00;;;0.40;;
55641;SDS011;41509;53.108;6.100;2024-02-23T00:37:44;4.55;;;0.40;;
55641;SDS011;41509;53.108;6.100;2024-02-23T00:40:10;4.53;;;0.98;;
55641;SDS011;41509;53.108;6.100;2024-02-23T00:42:37;5.32;;;1.10;;
55641;SDS011;41509;53.108;6.100;2024-02-23T00:45:03;0.88;;;0.52;;
55641;SDS011;41509;53.108;6.100;2024-02-23T00:47:30;2.50;;;0.90;;
55641;SDS011;41509;53.108;6.100;2024-02-23T00:49:59;2.17;;;0.57;;
55641;SDS011;41509;53.108;6.100;2024-02-23T00:52:25;4.45;;;0.80;;
55641;SDS011;41509;53.108;6.100;2024-02-23T00:54:51;4.55;;;0.70;;
55641;SDS011;41509;53.108;6.100;2024-02-23T00:57:16;3.90;;;0.67;;
55641;SDS011;41509;53.108;6.100;2024-02-23T00:59:44;3.00;;;0.75;;
55641;SDS011;41509;53.108;6.100;2024-02-23T01:02:09;5.77;;;1.10;;
55641;SDS011;41509;53.108;6.100;2024-02-23T01:04:35;5.67;;;0.80;;
55641;SDS011;41509;53.108;6.100;2024-02-23T01:07:01;3.80;;;0.73;;
55641;SDS011;41509;53.108;6.100;2024-02-23T01:09:26;4.93;;;0.90;;
55641;SDS011;41509;53.108;6.100;2024-02-23T01:11:52;6.40;;;0.87;;
55641;SDS011;41509;53.108;6.100;2024-02-23T01:14:17;4.13;;;0.80;;
55641;SDS011;41509;53.108;6.100;2024-02-23T01:16:43;7.57;;;0.97;;
55641;SDS011;41509;53.108;6.100;2024-02-23T01:19:12;1.87;;;0.70;;
55641;SDS011;41509;53.108;6.100;2024-02-23T01:21:38;4.32;;;0.75;;
55641;SDS011;41509;53.108;6.100;2024-02-23T01:24:04;6.78;;;1.17;;
55641;SDS011;41509;53.108;6.100;2024-02-23T01:26:30;8.57;;;1.30;;
55641;SDS011;41509;53.108;6.100;2024-02-23T01:28:55;13.33;;;1.33;;
55641;SDS011;41509;53.108;6.100;2024-02-23T01:31:24;6.82;;;1.60;;
55641;SDS011;41509;53.108;6.100;2024-02-23T01:33:49;16.88;;;1.73;;
55641;SDS011;41509;53.108;6.100;2024-02-23T01:38:43;6.28;;;1.45;;
55641;SDS011;41509;53.108;6.100;2024-02-23T01:41:08;5.67;;;1.67;;
55641;SDS011;41509;53.108;6.100;2024-02-23T01:43:37;10.35;;;1.23;;
55641;SDS011;41509;53.108;6.100;2024-02-23T01:46:02;3.03;;;1.20;;
55641;SDS011;41509;53.108;6.100;2024-02-23T01:48:30;9.98;;;1.50;;
55641;SDS011;41509;53.108;6.100;2024-02-23T01:50:56;6.00;;;0.90;;
55641;SDS011;41509;53.108;6.100;2024-02-23T01:53:22;11.70;;;2.65;;
55641;SDS011;41509;53.108;6.100;2024-02-23T01:55:50;7.97;;;1.40;;
55641;SDS011;41509;53.108;6.100;2024-02-23T01:58:16;11.03;;;2.17;;
55641;SDS011;41509;53.108;6.100;2024-02-23T02:03:11;3.17;;;1.13;;
55641;SDS011;41509;53.108;6.100;2024-02-23T02:05:37;4.22;;;0.70;;
55641;SDS011;41509;53.108;6.100;2024-02-23T02:08:05;4.45;;;1.05;;
55641;SDS011;41509;53.108;6.100;2024-02-23T02:10:31;7.45;;;1.75;;
55641;SDS011;41509;53.108;6.100;2024-02-23T02:13:04;7.63;;;1.30;;
55641;SDS011;41509;53.108;6.100;2024-02-23T02:15:30;11.88;;;1.98;;
55641;SDS011;41509;53.108;6.100;2024-02-23T02:17:58;9.05;;;1.52;;
55641;SDS011;41509;53.108;6.100;2024-02-23T02:20:24;11.63;;;2.47;;
55641;SDS011;41509;53.108;6.100;2024-02-23T02:22:53;8.00;;;1.73;;
55641;SDS011;41509;53.108;6.100;2024-02-23T02:25:19;14.17;;;1.93;;
55641;SDS011;41509;53.108;6.100;2024-02-23T02:27:45;12.18;;;2.47;;
55641;SDS011;41509;53.108;6.100;2024-02-23T02:30:11;5.20;;;1.60;;
55641;SDS011;41509;53.108;6.100;2024-02-23T02:32:40;7.28;;;1.27;;
55641;SDS011;41509;53.108;6.100;2024-02-23T02:35:05;4.13;;;1.67;;
55641;SDS011;41509;53.108;6.100;2024-02-23T02:37:31;8.05;;;1.35;;
55641;SDS011;41509;53.108;6.100;2024-02-23T02:40:00;7.80;;;1.35;;
55641;SDS011;41509;53.108;6.100;2024-02-23T02:42:25;4.70;;;1.77;;
55641;SDS011;41509;53.108;6.100;2024-02-23T02:44:53;4.15;;;1.10;;
55641;SDS011;41509;53.108;6.100;2024-02-23T02:47:19;10.40;;;1.90;;
55641;SDS011;41509;53.108;6.100;2024-02-23T02:49:44;9.70;;;1.17;;
55641;SDS011;41509;53.108;6.100;2024-02-23T02:52:13;7.25;;;2.50;;
55641;SDS011;41509;53.108;6.100;2024-02-23T02:54:38;9.07;;;1.30;;
55641;SDS011;41509;53.108;6.100;2024-02-23T02:57:07;5.32;;;1.33;;
55641;SDS011;41509;53.108;6.100;2024-02-23T02:59:36;8.87;;;1.27;;
55641;SDS011;41509;53.108;6.100;2024-02-23T03:02:01;5.97;;;1.10;;
55641;SDS011;41509;53.108;6.100;2024-02-23T03:04:27;8.67;;;0.80;;
55641;SDS011;41509;53.108;6.100;2024-02-23T03:06:52;8.33;;;1.13;;
55641;SDS011;41509;53.108;6.100;2024-02-23T03:09:18;10.83;;;0.97;;
55641;SDS011;41509;53.108;6.100;2024-02-23T03:11:44;10.40;;;1.50;;
55641;SDS011;41509;53.108;6.100;2024-02-23T03:14:09;7.27;;;1.00;;
55641;SDS011;41509;53.108;6.100;2024-02-23T03:16:35;7.40;;;1.13;;
55641;SDS011;41509;53.108;6.100;2024-02-23T03:19:02;3.95;;;0.95;;
55641;SDS011;41509;53.108;6.100;2024-02-23T03:21:28;7.35;;;0.90;;
55641;SDS011;41509;53.108;6.100;2024-02-23T03:23:55;6.30;;;1.15;;
55641;SDS011;41509;53.108;6.100;2024-02-23T03:26:21;6.03;;;1.27;;
55641;SDS011;41509;53.108;6.100;2024-02-23T03:28:46;6.70;;;1.00;;
55641;SDS011;41509;53.108;6.100;2024-02-23T03:31:13;7.95;;;1.08;;
55641;SDS011;41509;53.108;6.100;2024-02-23T03:33:39;4.23;;;1.00;;
55641;SDS011;41509;53.108;6.100;2024-02-23T03:36:05;4.35;;;1.10;;
55641;SDS011;41509;53.108;6.100;2024-02-23T03:38:31;7.22;;;1.23;;
55641;SDS011;41509;53.108;6.100;2024-02-23T03:40:58;5.65;;;1.23;;
55641;SDS011;41509;53.108;6.100;2024-02-23T03:43:24;5.80;;;0.90;;
55641;SDS011;41509;53.108;6.100;2024-02-23T03:45:50;9.90;;;1.70;;
55641;SDS011;41509;53.108;6.100;2024-02-23T03:48:18;12.52;;;1.17;;
55641;SDS011;41509;53.108;6.100;2024-02-23T03:50:43;5.03;;;1.10;;
55641;SDS011;41509;53.108;6.100;2024-02-23T03:53:09;12.30;;;1.17;;
55641;SDS011;41509;53.108;6.100;2024-02-23T03:55:35;10.60;;;0.93;;
55641;SDS011;41509;53.108;6.100;2024-02-23T03:58:03;7.78;;;1.10;;
55641;SDS011;41509;53.108;6.100;2024-02-23T04:00:29;10.87;;;1.10;;
55641;SDS011;41509;53.108;6.100;2024-02-23T04:02:54;5.50;;;1.17;;
55641;SDS011;41509;53.108;6.100;2024-02-23T04:05:23;6.55;;;0.98;;
55641;SDS011;41509;53.108;6.100;2024-02-23T04:07:48;4.37;;;0.83;;
55641;SDS011;41509;53.108;6.100;2024-02-23T04:10:14;15.73;;;1.43;;
55641;SDS011;41509;53.108;6.100;2024-02-23T04:12:42;5.75;;;0.80;;
55641;SDS011;41509;53.108;6.100;2024-02-23T04:15:08;4.57;;;0.95;;
55641;SDS011;41509;53.108;6.100;2024-02-23T04:17:34;5.90;;;1.00;;
55641;SDS011;41509;53.108;6.100;2024-02-23T04:20:00;6.50;;;0.77;;
55641;SDS011;41509;53.108;6.100;2024-02-23T04:22:31;6.47;;;1.15;;
55641;SDS011;41509;53.108;6.100;2024-02-23T04:24:57;5.97;;;0.90;;
55641;SDS011;41509;53.108;6.100;2024-02-23T04:27:23;3.63;;;0.90;;
55641;SDS011;41509;53.108;6.100;2024-02-23T04:29:48;6.00;;;1.10;;
55641;SDS011;41509;53.108;6.100;2024-02-23T04:32:17;4.30;;;0.98;;
55641;SDS011;41509;53.108;6.100;2024-02-23T04:34:42;2.97;;;0.70;;
55641;SDS011;41509;53.108;6.100;2024-02-23T04:37:14;7.50;;;2.10;;
55641;SDS011;41509;53.108;6.100;2024-02-23T04:39:39;4.45;;;1.02;;
55641;SDS011;41509;53.108;6.100;2024-02-23T04:42:07;4.55;;;1.25;;
55641;SDS011;41509;53.108;6.100;2024-02-23T04:44:33;15.00;;;2.08;;
55641;SDS011;41509;53.108;6.100;2024-02-23T04:47:00;3.15;;;1.00;;
55641;SDS011;41509;53.108;6.100;2024-02-23T04:49:26;8.93;;;1.35;;
55641;SDS011;41509;53.108;6.100;2024-02-23T04:51:51;3.07;;;1.30;;
55641;SDS011;41509;53.108;6.100;2024-02-23T04:54:17;10.33;;;1.20;;
55641;SDS011;41509;53.108;6.100;2024-02-23T04:56:42;4.83;;;1.03;;
55641;SDS011;41509;53.108;6.100;2024-02-23T04:59:08;1.47;;;0.47;;
55641;SDS011;41509;53.108;6.100;2024-02-23T05:01:37;5.17;;;1.00;;
55641;SDS011;41509;53.108;6.100;2024-02-23T05:04:03;5.65;;;0.90;;
55641;SDS011;41509;53.108;6.100;2024-02-23T05:06:31;2.37;;;0.57;;
55641;SDS011;41509;53.108;6.100;2024-02-23T05:08:57;4.32;;;0.60;;
55641;SDS011;41509;53.108;6.100;2024-02-23T05:11:22;6.17;;;0.93;;
55641;SDS011;41509;53.108;6.100;2024-02-23T05:13:51;4.85;;;2.35;;
55641;SDS011;41509;53.108;6.100;2024-02-23T05:16:16;8.27;;;1.30;;
55641;SDS011;41509;53.108;6.100;2024-02-23T05:18:42;3.33;;;1.00;;
55641;SDS011;41509;53.108;6.100;2024-02-23T05:21:08;9.10;;;1.10;;
55641;SDS011;41509;53.108;6.100;2024-02-23T05:23:35;6.50;;;0.85;;
55641;SDS011;41509;53.108;6.100;2024-02-23T05:26:00;9.68;;;1.95;;
55641;SDS011;41509;53.108;6.100;2024-02-23T05:28:26;12.15;;;1.23;;
55641;SDS011;41509;53.108;6.100;2024-02-23T05:30:53;3.47;;;0.88;;
55641;SDS011;41509;53.108;6.100;2024-02-23T05:33:21;8.50;;;1.55;;
55641;SDS011;41509;53.108;6.100;2024-02-23T05:35:47;5.80;;;1.60;;
55641;SDS011;41509;53.108;6.100;2024-02-23T05:38:15;7.50;;;1.08;;
55641;SDS011;41509;53.108;6.100;2024-02-23T05:40:41;6.07;;;0.95;;
55641;SDS011;41509;53.108;6.100;2024-02-23T05:43:12;12.85;;;1.70;;
55641;SDS011;41509;53.108;6.100;2024-02-23T05:45:38;9.55;;;1.00;;
55641;SDS011;41509;53.108;6.100;2024-02-23T05:48:07;5.73;;;1.27;;
55641;SDS011;41509;53.108;6.100;2024-02-23T05:50:32;5.38;;;0.75;;
55641;SDS011;41509;53.108;6.100;2024-02-23T05:52:58;6.13;;;0.83;;
55641;SDS011;41509;53.108;6.100;2024-02-23T05:55:24;10.30;;;1.10;;
55641;SDS011;41509;53.108;6.100;2024-02-23T05:57:49;7.43;;;1.50;;
55641;SDS011;41509;53.108;6.100;2024-02-23T06:00:18;8.90;;;1.48;;
55641;SDS011;41509;53.108;6.100;2024-02-23T06:02:44;5.85;;;1.52;;
55641;SDS011;41509;53.108;6.100;2024-02-23T06:05:12;5.95;;;1.17;;
55641;SDS011;41509;53.108;6.100;2024-02-23T06:07:38;3.97;;;1.33;;
55641;SDS011;41509;53.108;6.100;2024-02-23T06:10:04;4.60;;;1.37;;
55641;SDS011;41509;53.108;6.100;2024-02-23T06:12:30;5.32;;;1.40;;
55641;SDS011;41509;53.108;6.100;2024-02-23T06:14:58;5.38;;;1.65;;
55641;SDS011;41509;53.108;6.100;2024-02-23T06:17:24;10.90;;;2.50;;
55641;SDS011;41509;53.108;6.100;2024-02-23T06:19:53;6.53;;;1.70;;
55641;SDS011;41509;53.108;6.100;2024-02-23T06:22:21;4.47;;;2.70;;
55641;SDS011;41509;53.108;6.100;2024-02-23T06:24:47;7.40;;;2.00;;
55641;SDS011;41509;53.108;6.100;2024-02-23T06:27:13;5.10;;;2.47;;
55641;SDS011;41509;53.108;6.100;2024-02-23T06:29:38;6.20;;;2.23;;
55641;SDS011;41509;53.108;6.100;2024-02-23T06:32:04;6.27;;;1.73;;
55641;SDS011;41509;53.108;6.100;2024-02-23T06:34:30;6.25;;;1.98;;
55641;SDS011;41509;53.108;6.100;2024-02-23T06:36:56;10.23;;;2.53;;
55641;SDS011;41509;53.108;6.100;2024-02-23T06:39:22;17.20;;;2.13;;
55641;SDS011;41509;53.108;6.100;2024-02-23T06:41:48;8.63;;;2.20;;
55641;SDS011;41509;53.108;6.100;2024-02-23T06:44:14;10.63;;;2.10;;
55641;SDS011;41509;53.108;6.100;2024-02-23T06:46:39;7.13;;;1.97;;
55641;SDS011;41509;53.108;6.100;2024-02-23T06:49:05;8.97;;;2.30;;
55641;SDS011;41509;53.108;6.100;2024-02-23T06:51:31;5.78;;;2.00;;
55641;SDS011;41509;53.108;6.100;2024-02-23T06:53:57;7.97;;;2.53;;
55641;SDS011;41509;53.108;6.100;2024-02-23T06:56:23;10.97;;;2.53;;
55641;SDS011;41509;53.108;6.100;2024-02-23T06:58:48;8.33;;;2.60;;
55641;SDS011;41509;53.108;6.100;2024-02-23T07:01:14;6.83;;;2.57;;
55641;SDS011;41509;53.108;6.100;2024-02-23T07:03:39;5.13;;;2.53;;
55641;SDS011;41509;53.108;6.100;2024-02-23T07:06:10;12.27;;;2.55;;
55641;SDS011;41509;53.108;6.100;2024-02-23T07:08:36;11.67;;;3.00;;
55641;SDS011;41509;53.108;6.100;2024-02-23T07:11:04;8.10;;;2.88;;
55641;SDS011;41509;53.108;6.100;2024-02-23T07:13:30;8.03;;;3.03;;
55641;SDS011;41509;53.108;6.100;2024-02-23T07:15:55;8.00;;;2.67;;
55641;SDS011;41509;53.108;6.100;2024-02-23T07:18:21;12.23;;;3.77;;
55641;SDS011;41509;53.108;6.100;2024-02-23T07:20:47;11.20;;;3.55;;
55641;SDS011;41509;53.108;6.100;2024-02-23T07:23:13;8.37;;;3.50;;
55641;SDS011;41509;53.108;6.100;2024-02-23T07:25:41;5.90;;;3.13;;
55641;SDS011;41509;53.108;6.100;2024-02-23T07:28:07;11.13;;;2.80;;
55641;SDS011;41509;53.108;6.100;2024-02-23T07:30:32;9.27;;;3.20;;
55641;SDS011;41509;53.108;6.100;2024-02-23T07:33:00;9.45;;;2.92;;
55641;SDS011;41509;53.108;6.100;2024-02-23T07:35:25;7.07;;;3.10;;
55641;SDS011;41509;53.108;6.100;2024-02-23T07:37:51;9.33;;;2.60;;
55641;SDS011;41509;53.108;6.100;2024-02-23T07:40:17;8.70;;;2.90;;
55641;SDS011;41509;53.108;6.100;2024-02-23T07:42:43;6.67;;;2.80;;
55641;SDS011;41509;53.108;6.100;2024-02-23T07:45:08;14.03;;;2.37;;
55641;SDS011;41509;53.108;6.100;2024-02-23T07:47:35;10.95;;;2.60;;
55641;SDS011;41509;53.108;6.100;2024-02-23T07:50:00;6.90;;;2.53;;
55641;SDS011;41509;53.108;6.100;2024-02-23T07:52:29;7.55;;;2.58;;
55641;SDS011;41509;53.108;6.100;2024-02-23T07:54:54;9.10;;;3.27;;
55641;SDS011;41509;53.108;6.100;2024-02-23T07:57:23;8.00;;;3.35;;
55641;SDS011;41509;53.108;6.100;2024-02-23T07:59:49;7.40;;;2.80;;
55641;SDS011;41509;53.108;6.100;2024-02-23T08:02:15;7.97;;;3.50;;
55641;SDS011;41509;53.108;6.100;2024-02-23T08:04:40;8.97;;;2.90;;
55641;SDS011;41509;53.108;6.100;2024-02-23T08:07:07;7.97;;;2.50;;
55641;SDS011;41509;53.108;6.100;2024-02-23T08:09:33;8.45;;;2.90;;
55641;SDS011;41509;53.108;6.100;2024-02-23T08:11:59;6.90;;;2.90;;
55641;SDS011;41509;53.108;6.100;2024-02-23T08:14:24;8.70;;;3.00;;
55641;SDS011;41509;53.108;6.100;2024-02-23T08:16:50;7.53;;;3.03;;
55641;SDS011;41509;53.108;6.100;2024-02-23T08:19:16;8.00;;;3.00;;
55641;SDS011;41509;53.108;6.100;2024-02-23T08:21:41;9.70;;;3.50;;
55641;SDS011;41509;53.108;6.100;2024-02-23T08:24:08;4.82;;;2.40;;
55641;SDS011;41509;53.108;6.100;2024-02-23T08:26:34;5.87;;;2.90;;
55641;SDS011;41509;53.108;6.100;2024-02-23T08:29:00;6.63;;;2.50;;
55641;SDS011;41509;53.108;6.100;2024-02-23T08:31:26;4.77;;;2.20;;
55641;SDS011;41509;53.108;6.100;2024-02-23T08:33:51;7.07;;;2.20;;
55641;SDS011;41509;53.108;6.100;2024-02-23T08:36:17;6.93;;;2.20;;
55641;SDS011;41509;53.108;6.100;2024-02-23T08:38:42;11.67;;;3.07;;
55641;SDS011;41509;53.108;6.100;2024-02-23T08:41:08;8.40;;;2.20;;
55641;SDS011;41509;53.108;6.100;2024-02-23T08:43:34;5.00;;;1.93;;
55641;SDS011;41509;53.108;6.100;2024-02-23T08:45:59;4.13;;;2.00;;
55641;SDS011;41509;53.108;6.100;2024-02-23T08:48:25;4.07;;;1.73;;
55641;SDS011;41509;53.108;6.100;2024-02-23T08:50:50;3.93;;;1.83;;
55641;SDS011;41509;53.108;6.100;2024-02-23T08:53:16;4.93;;;1.63;;
55641;SDS011;41509;53.108;6.100;2024-02-23T08:55:43;2.87;;;1.40;;
55641;SDS011;41509;53.108;6.100;2024-02-23T08:58:09;2.78;;;1.80;;
55641;SDS011;41509;53.108;6.100;2024-02-23T09:00:34;6.27;;;1.23;;
55641;SDS011;41509;53.108;6.100;2024-02-23T09:03:02;6.15;;;1.80;;
55641;SDS011;41509;53.108;6.100;2024-02-23T09:05:28;5.82;;;1.38;;
55641;SDS011;41509;53.108;6.100;2024-02-23T09:07:55;4.70;;;1.70;;
55641;SDS011;41509;53.108;6.100;2024-02-23T09:10:21;4.87;;;1.50;;
55641;SDS011;41509;53.108;6.100;2024-02-23T09:12:47;3.73;;;1.40;;
55641;SDS011;41509;53.108;6.100;2024-02-23T09:15:12;4.03;;;1.00;;
55641;SDS011;41509;53.108;6.100;2024-02-23T09:17:40;6.40;;;1.73;;
55641;SDS011;41509;53.108;6.100;2024-02-23T09:20:06;4.22;;;1.30;;
55641;SDS011;41509;53.108;6.100;2024-02-23T09:22:33;3.60;;;1.50;;
55641;SDS011;41509;53.108;6.100;2024-02-23T09:24:58;2.80;;;1.30;;
55641;SDS011;41509;53.108;6.100;2024-02-23T09:27:24;4.20;;;1.10;;
55641;SDS011;41509;53.108;6.100;2024-02-23T09:29:50;4.83;;;1.10;;
55641;SDS011;41509;53.108;6.100;2024-02-23T09:32:15;4.10;;;1.67;;
55641;SDS011;41509;53.108;6.100;2024-02-23T09:34:41;6.43;;;1.20;;
55641;SDS011;41509;53.108;6.100;2024-02-23T09:37:07;4.43;;;1.20;;
55641;SDS011;41509;53.108;6.100;2024-02-23T09:39:33;1.83;;;0.90;;
55641;SDS011;41509;53.108;6.100;2024-02-23T09:41:58;4.57;;;1.37;;
55641;SDS011;41509;53.108;6.100;2024-02-23T09:44:26;3.78;;;1.15;;
55641;SDS011;41509;53.108;6.100;2024-02-23T09:47:01;4.28;;;1.60;;
55641;SDS011;41509;53.108;6.100;2024-02-23T09:49:33;5.38;;;1.17;;
55641;SDS011;41509;53.108;6.100;2024-02-23T09:52:04;4.65;;;1.90;;
55641;SDS011;41509;53.108;6.100;2024-02-23T09:54:34;6.78;;;1.65;;
55641;SDS011;41509;53.108;6.100;2024-02-23T09:57:02;4.47;;;1.45;;
55641;SDS011;41509;53.108;6.100;2024-02-23T09:59:32;4.00;;;1.10;;
55641;SDS011;41509;53.108;6.100;2024-02-23T10:01:59;6.47;;;1.60;;
55641;SDS011;41509;53.108;6.100;2024-02-23T10:04:25;6.10;;;1.23;;
55641;SDS011;41509;53.108;6.100;2024-02-23T10:06:54;7.85;;;1.35;;
55641;SDS011;41509;53.108;6.100;2024-02-23T10:09:20;4.20;;;1.17;;
55641;SDS011;41509;53.108;6.100;2024-02-23T10:11:51;6.00;;;1.42;;
55641;SDS011;41509;53.108;6.100;2024-02-23T10:14:20;3.38;;;0.90;;
55641;SDS011;41509;53.108;6.100;2024-02-23T10:16:46;5.20;;;1.17;;
55641;SDS011;41509;53.108;6.100;2024-02-23T10:19:12;8.70;;;1.63;;
55641;SDS011;41509;53.108;6.100;2024-02-23T10:21:37;8.03;;;1.60;;
55641;SDS011;41509;53.108;6.100;2024-02-23T10:24:04;8.57;;;1.45;;
55641;SDS011;41509;53.108;6.100;2024-02-23T10:26:31;3.13;;;1.02;;
55641;SDS011;41509;53.108;6.100;2024-02-23T10:28:57;5.63;;;1.30;;
55641;SDS011;41509;53.108;6.100;2024-02-23T10:31:24;6.88;;;1.17;;
55641;SDS011;41509;53.108;6.100;2024-02-23T10:33:50;4.30;;;1.20;;
55641;SDS011;41509;53.108;6.100;2024-02-23T10:36:17;6.65;;;1.30;;
55641;SDS011;41509;53.108;6.100;2024-02-23T10:38:47;7.50;;;1.17;;
55641;SDS011;41509;53.108;6.100;2024-02-23T10:41:16;5.50;;;1.20;;
55641;SDS011;41509;53.108;6.100;2024-02-23T10:43:46;5.80;;;1.30;;
55641;SDS011;41509;53.108;6.100;2024-02-23T10:46:12;8.88;;;2.20;;
55641;SDS011;41509;53.108;6.100;2024-02-23T10:48:40;3.30;;;1.10;;
55641;SDS011;41509;53.108;6.100;2024-02-23T10:51:06;4.63;;;1.17;;
55641;SDS011;41509;53.108;6.100;2024-02-23T10:53:33;6.65;;;1.10;;
55641;SDS011;41509;53.108;6.100;2024-02-23T10:56:00;3.63;;;1.10;;
55641;SDS011;41509;53.108;6.100;2024-02-23T10:58:26;4.43;;;1.00;;
55641;SDS011;41509;53.108;6.100;2024-02-23T11:00:52;3.72;;;1.20;;
55641;SDS011;41509;53.108;6.100;2024-02-23T11:03:24;3.88;;;1.35;;
55641;SDS011;41509;53.108;6.100;2024-02-23T11:05:50;5.15;;;1.70;;
55641;SDS011;41509;53.108;6.100;2024-02-23T11:08:18;2.42;;;1.00;;
55641;SDS011;41509;53.108;6.100;2024-02-23T11:10:50;4.13;;;1.17;;
55641;SDS011;41509;53.108;6.100;2024-02-23T11:13:34;6.13;;;1.35;;
55641;SDS011;41509;53.108;6.100;2024-02-23T11:16:01;3.70;;;1.13;;
55641;SDS011;41509;53.108;6.100;2024-02-23T11:18:29;3.35;;;1.05;;
55641;SDS011;41509;53.108;6.100;2024-02-23T11:21:00;8.77;;;1.73;;
55641;SDS011;41509;53.108;6.100;2024-02-23T11:23:42;7.25;;;1.65;;
55641;SDS011;41509;53.108;6.100;2024-02-23T11:26:15;5.30;;;1.20;;
55641;SDS011;41509;53.108;6.100;2024-02-23T11:28:47;5.37;;;0.97;;
55641;SDS011;41509;53.108;6.100;2024-02-23T11:31:20;3.83;;;0.95;;
55641;SDS011;41509;53.108;6.100;2024-02-23T11:33:50;2.92;;;1.17;;
55641;SDS011;41509;53.108;6.100;2024-02-23T11:38:59;6.70;;;1.20;;
55641;SDS011;41509;53.108;6.100;2024-02-23T11:41:26;4.18;;;1.30;;
55641;SDS011;41509;53.108;6.100;2024-02-23T11:43:53;5.75;;;1.35;;
55641;SDS011;41509;53.108;6.100;2024-02-23T11:46:20;5.10;;;1.20;;
55641;SDS011;41509;53.108;6.100;2024-02-23T11:48:47;5.97;;;1.17;;
55641;SDS011;41509;53.108;6.100;2024-02-23T11:51:18;2.25;;;1.00;;
55641;SDS011;41509;53.108;6.100;2024-02-23T11:53:44;4.88;;;1.13;;
55641;SDS011;41509;53.108;6.100;2024-02-23T11:56:11;4.72;;;1.52;;
55641;SDS011;41509;53.108;6.100;2024-02-23T11:58:36;6.70;;;1.57;;
55641;SDS011;41509;53.108;6.100;2024-02-23T12:01:02;1.83;;;0.87;;
55641;SDS011;41509;53.108;6.100;2024-02-23T12:03:29;2.85;;;0.90;;
55641;SDS011;41509;53.108;6.100;2024-02-23T12:05:58;5.00;;;1.27;;
55641;SDS011;41509;53.108;6.100;2024-02-23T12:08:27;7.30;;;1.08;;
55641;SDS011;41509;53.108;6.100;2024-02-23T12:10:55;5.05;;;1.30;;
55641;SDS011;41509;53.108;6.100;2024-02-23T12:13:22;4.28;;;1.30;;
55641;SDS011;41509;53.108;6.100;2024-02-23T12:15:48;3.13;;;1.20;;
55641;SDS011;41509;53.108;6.100;2024-02-23T12:18:17;4.10;;;1.23;;
55641;SDS011;41509;53.108;6.100;2024-02-23T12:20:48;3.63;;;1.77;;
55641;SDS011;41509;53.108;6.100;2024-02-23T12:23:14;3.25;;;1.15;;
55641;SDS011;41509;53.108;6.100;2024-02-23T12:25:40;4.50;;;1.07;;
55641;SDS011;41509;53.108;6.100;2024-02-23T12:28:05;2.65;;;1.10;;
55641;SDS011;41509;53.108;6.100;2024-02-23T12:30:31;4.17;;;1.00;;
55641;SDS011;41509;53.108;6.100;2024-02-23T12:33:04;3.92;;;1.00;;
55641;SDS011;41509;53.108;6.100;2024-02-23T12:35:32;8.23;;;1.67;;
55641;SDS011;41509;53.108;6.100;2024-02-23T12:37:59;4.97;;;1.67;;
55641;SDS011;41509;53.108;6.100;2024-02-23T12:40:32;4.82;;;1.67;;
55641;SDS011;41509;53.108;6.100;2024-02-23T12:42:58;3.30;;;1.33;;
55641;SDS011;41509;53.108;6.100;2024-02-23T12:45:24;2.57;;;1.53;;
55641;SDS011;41509;53.108;6.100;2024-02-23T12:47:50;4.15;;;1.60;;
55641;SDS011;41509;53.108;6.100;2024-02-23T12:50:15;3.70;;;1.33;;
55641;SDS011;41509;53.108;6.100;2024-02-23T12:52:41;3.77;;;1.63;;
55641;SDS011;41509;53.108;6.100;2024-02-23T12:57:33;3.40;;;0.90;;
55641;SDS011;41509;53.108;6.100;2024-02-23T12:59:59;2.93;;;1.10;;
55641;SDS011;41509;53.108;6.100;2024-02-23T13:02:27;5.07;;;1.20;;
55641;SDS011;41509;53.108;6.100;2024-02-23T13:04:53;5.45;;;1.50;;
55641;SDS011;41509;53.108;6.100;2024-02-23T13:07:19;4.00;;;1.20;;
55641;SDS011;41509;53.108;6.100;2024-02-23T13:09:45;9.13;;;1.77;;
55641;SDS011;41509;53.108;6.100;2024-02-23T13:12:10;2.17;;;1.17;;
55641;SDS011;41509;53.108;6.100;2024-02-23T13:14:36;2.70;;;1.30;;
55641;SDS011;41509;53.108;6.100;2024-02-23T13:17:02;4.30;;;1.60;;
55641;SDS011;41509;53.108;6.100;2024-02-23T13:19:28;3.97;;;1.30;;
55641;SDS011;41509;53.108;6.100;2024-02-23T13:21:54;6.03;;;1.43;;
55641;SDS011;41509;53.108;6.100;2024-02-23T13:24:20;3.23;;;1.20;;
55641;SDS011;41509;53.108;6.100;2024-02-23T13:26:45;4.28;;;1.48;;
55641;SDS011;41509;53.108;6.100;2024-02-23T13:29:11;2.90;;;1.13;;
55641;SDS011;41509;53.108;6.100;2024-02-23T13:31:37;6.90;;;1.20;;
55641;SDS011;41509;53.108;6.100;2024-02-23T13:34:04;5.35;;;2.10;;
55641;SDS011;41509;53.108;6.100;2024-02-23T13:36:30;7.70;;;1.20;;
55641;SDS011;41509;53.108;6.100;2024-02-23T13:38:56;2.07;;;0.97;;
55641;SDS011;41509;53.108;6.100;2024-02-23T13:41:21;3.83;;;1.17;;
55641;SDS011;41509;53.108;6.100;2024-02-23T13:43:47;6.20;;;1.35;;
55641;SDS011;41509;53.108;6.100;2024-02-23T13:46:13;5.80;;;1.47;;
55641;SDS011;41509;53.108;6.100;2024-02-23T13:48:38;7.53;;;1.83;;
55641;SDS011;41509;53.108;6.100;2024-02-23T13:51:04;4.93;;;2.30;;
55641;SDS011;41509;53.108;6.100;2024-02-23T13:53:30;2.97;;;0.93;;
55641;SDS011;41509;53.108;6.100;2024-02-23T13:55:56;1.63;;;0.85;;
55641;SDS011;41509;53.108;6.100;2024-02-23T13:58:22;5.30;;;0.87;;
55641;SDS011;41509;53.108;6.100;2024-02-23T14:00:48;2.37;;;0.70;;
55641;SDS011;41509;53.108;6.100;2024-02-23T14:03:15;7.50;;;1.23;;
55641;SDS011;41509;53.108;6.100;2024-02-23T14:05:46;5.70;;;0.80;;
55641;SDS011;41509;53.108;6.100;2024-02-23T14:08:12;2.38;;;0.75;;
55641;SDS011;41509;53.108;6.100;2024-02-23T14:10:38;4.57;;;1.50;;
55641;SDS011;41509;53.108;6.100;2024-02-23T14:13:05;4.30;;;0.75;;
55641;SDS011;41509;53.108;6.100;2024-02-23T14:15:31;6.43;;;1.00;;
55641;SDS011;41509;53.108;6.100;2024-02-23T14:17:57;3.15;;;0.77;;
55641;SDS011;41509;53.108;6.100;2024-02-23T14:20:23;5.33;;;1.77;;
55641;SDS011;41509;53.108;6.100;2024-02-23T14:22:48;3.45;;;0.95;;
55641;SDS011;41509;53.108;6.100;2024-02-23T14:25:15;5.82;;;0.98;;
55641;SDS011;41509;53.108;6.100;2024-02-23T14:27:41;4.87;;;1.00;;
55641;SDS011;41509;53.108;6.100;2024-02-23T14:30:06;4.80;;;1.57;;
55641;SDS011;41509;53.108;6.100;2024-02-23T14:35:00;8.18;;;0.90;;
55641;SDS011;41509;53.108;6.100;2024-02-23T14:37:28;9.68;;;1.45;;
55641;SDS011;41509;53.108;6.100;2024-02-23T14:39:54;3.90;;;1.27;;
55641;SDS011;41509;53.108;6.100;2024-02-23T14:42:19;5.83;;;1.00;;
55641;SDS011;41509;53.108;6.100;2024-02-23T14:44:45;5.47;;;0.73;;
55641;SDS011;41509;53.108;6.100;2024-02-23T14:47:11;6.77;;;1.40;;
55641;SDS011;41509;53.108;6.100;2024-02-23T14:49:38;2.53;;;0.93;;
55641;SDS011;41509;53.108;6.100;2024-02-23T14:52:03;7.43;;;1.40;;
55641;SDS011;41509;53.108;6.100;2024-02-23T14:54:29;4.60;;;1.10;;